« Back
NWS Peachtree City, Ga » Text Product » AHN Terminal Aerodrome Forecast


Printer-friendly Version
Current Version              Previous Versions:   1  2  3  4  5  6  7  8  9  

Terminal Aerodrome Forecast

658
FTUS42 KFFC 300523
TAFAHN
TAF
KAHN 300523Z 3006/3106 00000KT P6SM SKC
     FM301100 00000KT 3SM BR BKN012
     FM301400 00000KT P6SM BKN025
     FM301600 11003KT P6SM BKN035
     FM310100 00000KT P6SM SCT050=

USA.gov is the U.S. government's official web portal to all federal, state and local government web resources and services.